createdAt,value
2022-11-17T00:01:59.217Z,77.15
2022-11-17T00:04:30.864Z,76.84
2022-11-17T00:07:03.248Z,76.87
2022-11-17T00:09:34.788Z,76.82
2022-11-17T00:12:26.150Z,76.63
2022-11-17T00:15:00.248Z,76.07
2022-11-17T00:17:32.318Z,76.34
2022-11-17T00:20:21.337Z,76.41
2022-11-17T00:22:53.745Z,76.46
2022-11-17T00:25:25.356Z,76.19
2022-11-17T00:27:56.833Z,76.31
2022-11-17T00:30:45.459Z,75.75
2022-11-17T00:33:34.729Z,75.24
2022-11-17T00:36:07.165Z,75.28
2022-11-17T00:38:38.549Z,75.42
2022-11-17T00:41:10.065Z,75.63
2022-11-17T00:43:41.464Z,75.91
2022-11-17T00:46:13.223Z,75.53
2022-11-17T00:48:44.676Z,75.92
2022-11-17T00:51:16.112Z,76.39
2022-11-17T00:53:47.620Z,76.56
2022-11-17T00:56:19.181Z,76.71
2022-11-17T00:58:50.767Z,75.86
2022-11-17T01:01:22.389Z,75.09
2022-11-17T01:04:03.517Z,74.49
2022-11-17T01:06:37.586Z,74.01
2022-11-17T01:09:13.205Z,73.58
2022-11-17T01:11:45.554Z,73.93
2022-11-17T01:14:19.396Z,74.52
2022-11-17T01:16:50.951Z,73.86
2022-11-17T01:19:30.809Z,73.64
2022-11-17T01:22:13.928Z,74.22
2022-11-17T01:24:45.437Z,74.50
2022-11-17T01:27:17.075Z,74.69
2022-11-17T01:29:48.625Z,74.41
2022-11-17T01:32:20.025Z,73.79
2022-11-17T01:34:51.880Z,73.95
2022-11-17T01:37:23.379Z,74.21
2022-11-17T01:39:54.906Z,74.25
2022-11-17T01:42:28.483Z,74.24
2022-11-17T01:45:03.155Z,73.31
2022-11-17T01:47:40.022Z,73.10
2022-11-17T01:50:20.334Z,73.13
2022-11-17T01:52:53.312Z,72.90
2022-11-17T01:55:27.045Z,73.22
2022-11-17T01:58:04.446Z,72.42
2022-11-17T02:00:36.135Z,72.49
2022-11-17T02:03:11.632Z,72.21
2022-11-17T02:05:50.421Z,72.01
2022-11-17T02:08:24.609Z,71.91
2022-11-17T02:10:56.966Z,71.52
2022-11-17T02:13:29.472Z,71.31
2022-11-17T02:16:00.912Z,71.21
2022-11-17T02:18:32.492Z,71.61
2022-11-17T02:21:25.783Z,71.34
2022-11-17T02:24:19.738Z,70.66
2022-11-17T02:27:26.586Z,70.72
2022-11-17T02:30:04.171Z,69.71
2022-11-17T02:32:45.594Z,69.59
2022-11-17T02:35:26.300Z,69.16
2022-11-17T02:38:08.066Z,69.89
2022-11-17T02:40:45.824Z,69.98
2022-11-17T02:43:39.121Z,69.75
2022-11-17T02:46:13.605Z,69.81
2022-11-17T02:48:50.292Z,70.50
2022-11-17T02:51:24.490Z,70.65
2022-11-17T02:54:00.544Z,71.02
2022-11-17T02:56:32.150Z,70.90
2022-11-17T02:59:06.273Z,71.41
2022-11-17T03:01:58.327Z,71.69
2022-11-17T03:04:40.548Z,71.39
2022-11-17T03:07:29.800Z,71.22
2022-11-17T03:10:10.484Z,70.96
2022-11-17T03:12:49.513Z,70.86
2022-11-17T03:15:29.017Z,71.14
2022-11-17T03:18:12.324Z,70.55
2022-11-17T03:20:51.554Z,70.78
2022-11-17T03:23:29.685Z,70.57
2022-11-17T03:26:03.094Z,70.78
2022-11-17T03:28:36.222Z,71.00
2022-11-17T03:31:11.559Z,70.16
2022-11-17T03:33:46.052Z,69.83
2022-11-17T03:36:21.892Z,69.61
2022-11-17T03:38:58.035Z,70.22
2022-11-17T03:41:34.823Z,70.63
2022-11-17T03:44:08.552Z,70.61
2022-11-17T03:46:40.791Z,70.83
2022-11-17T03:49:19.647Z,70.87
2022-11-17T03:51:51.140Z,70.91
2022-11-17T03:54:22.600Z,70.37
2022-11-17T03:56:58.881Z,70.16
2022-11-17T03:59:35.596Z,70.13
2022-11-17T04:02:08.339Z,69.89
2022-11-17T04:04:53.531Z,70.20
2022-11-17T04:07:23.574Z,70.40
2022-11-17T04:09:55.132Z,70.22
2022-11-17T04:12:43.752Z,70.00
2022-11-17T04:15:33.008Z,69.93
2022-11-17T04:18:05.802Z,70.39
2022-11-17T04:20:37.634Z,70.28
2022-11-17T04:23:11.716Z,70.48
2022-11-17T04:26:11.446Z,70.50
2022-11-17T04:28:56.751Z,70.40
2022-11-17T04:31:42.016Z,70.38
2022-11-17T04:34:24.782Z,70.57
2022-11-17T04:37:19.662Z,70.40
2022-11-17T04:39:51.079Z,70.16
2022-11-17T04:42:22.528Z,69.97
2022-11-17T04:44:54.069Z,70.20
2022-11-17T04:47:25.446Z,69.86
2022-11-17T04:49:56.894Z,69.42
2022-11-17T04:52:29.952Z,69.53
2022-11-17T04:55:01.566Z,69.83
2022-11-17T04:57:32.983Z,70.39
2022-11-17T05:00:05.110Z,70.63
2022-11-17T05:02:36.897Z,70.14
2022-11-17T05:05:09.753Z,69.64
2022-11-17T05:07:41.306Z,69.54
2022-11-17T05:10:15.377Z,69.57
2022-11-17T05:13:18.656Z,69.67
2022-11-17T05:16:09.197Z,69.94
2022-11-17T05:18:41.054Z,69.86
2022-11-17T05:21:13.427Z,69.32
2022-11-17T05:23:56.871Z,69.47
2022-11-17T05:26:30.171Z,69.88
2022-11-17T05:29:03.675Z,70.10
2022-11-17T05:31:35.832Z,69.93
2022-11-17T05:34:09.366Z,69.72
2022-11-17T05:36:41.500Z,69.58
2022-11-17T05:39:14.265Z,69.57
2022-11-17T05:41:45.631Z,69.54
2022-11-17T05:44:17.176Z,69.06
2022-11-17T05:46:48.567Z,69.05
2022-11-17T05:49:20.120Z,69.02
2022-11-17T05:51:53.099Z,69.28
2022-11-17T05:54:24.888Z,69.40
2022-11-17T05:57:02.062Z,69.30
2022-11-17T05:59:38.373Z,69.35
2022-11-17T06:02:15.472Z,69.31
2022-11-17T06:04:47.849Z,69.04
2022-11-17T06:07:19.929Z,68.95
2022-11-17T06:09:52.603Z,68.75
2022-11-17T06:12:24.012Z,68.81
2022-11-17T06:14:55.482Z,68.35
2022-11-17T06:17:33.232Z,68.02
2022-11-17T06:20:07.332Z,68.02
2022-11-17T06:22:41.796Z,67.72
2022-11-17T06:25:16.062Z,67.64
2022-11-17T06:27:48.947Z,67.78
2022-11-17T06:30:22.112Z,68.18
2022-11-17T06:32:56.771Z,68.07
2022-11-17T06:35:33.564Z,67.76
2022-11-17T06:38:05.703Z,67.97
2022-11-17T06:40:37.328Z,67.89
2022-11-17T06:43:10.082Z,67.87
2022-11-17T06:45:44.019Z,68.14
2022-11-17T06:48:18.169Z,68.57
2022-11-17T06:50:51.763Z,68.31
2022-11-17T06:53:26.846Z,68.18
2022-11-17T06:56:09.622Z,67.23
2022-11-17T06:58:44.672Z,66.97
2022-11-17T07:01:17.486Z,66.34
2022-11-17T07:03:49.531Z,66.28
2022-11-17T07:06:35.062Z,66.53
2022-11-17T07:09:06.809Z,66.62
2022-11-17T07:11:39.241Z,66.28
2022-11-17T07:14:11.535Z,66.21
2022-11-17T07:16:44.877Z,66.23
2022-11-17T07:19:16.438Z,66.18
2022-11-17T07:21:48.037Z,66.13
2022-11-17T07:24:19.569Z,66.10
2022-11-17T07:26:51.185Z,66.01
2022-11-17T07:29:22.646Z,66.19
2022-11-17T07:31:54.208Z,66.08
2022-11-17T07:34:25.748Z,66.41
2022-11-17T07:36:57.505Z,66.51
2022-11-17T07:39:29.439Z,66.36
2022-11-17T07:42:01.045Z,66.12
2022-11-17T07:44:34.729Z,66.31
2022-11-17T07:47:06.286Z,65.75
2022-11-17T07:49:38.042Z,65.73
2022-11-17T07:52:09.690Z,65.36
2022-11-17T07:54:41.307Z,65.35
2022-11-17T07:57:12.855Z,65.65
2022-11-17T07:59:48.157Z,65.65
2022-11-17T08:02:20.072Z,65.71
2022-11-17T08:04:51.749Z,65.93
2022-11-17T08:07:23.254Z,65.76
2022-11-17T08:09:54.804Z,65.76
2022-11-17T08:12:26.390Z,65.39
2022-11-17T08:14:59.181Z,65.14
2022-11-17T08:17:32.458Z,64.06
2022-11-17T08:20:04.640Z,63.39
2022-11-17T08:22:36.252Z,63.50
2022-11-17T08:25:08.732Z,63.27
2022-11-17T08:27:40.237Z,63.18
2022-11-17T08:30:13.081Z,63.23
2022-11-17T08:32:51.887Z,63.44
2022-11-17T08:35:25.710Z,63.50
2022-11-17T08:37:57.486Z,63.47
2022-11-17T08:40:29.008Z,63.97
2022-11-17T08:43:02.592Z,63.99
2022-11-17T08:45:34.025Z,64.59
2022-11-17T08:48:07.794Z,64.23
2022-11-17T08:50:39.254Z,64.30
2022-11-17T08:53:16.484Z,64.55
2022-11-17T08:55:48.062Z,64.33
2022-11-17T08:58:20.291Z,64.13
2022-11-17T09:00:52.058Z,63.86
2022-11-17T09:03:24.147Z,64.06
2022-11-17T09:05:55.824Z,63.82
2022-11-17T09:08:45.022Z,63.72
2022-11-17T09:11:17.683Z,63.06
2022-11-17T09:13:49.213Z,62.76
2022-11-17T09:16:21.404Z,63.14
2022-11-17T09:18:58.676Z,63.08
2022-11-17T09:21:31.955Z,63.63
2022-11-17T09:24:03.561Z,63.79
2022-11-17T09:26:35.418Z,63.73
2022-11-17T09:29:07.404Z,64.08
2022-11-17T09:31:39.393Z,63.75
2022-11-17T09:34:10.909Z,63.81
2022-11-17T09:36:43.210Z,64.39
2022-11-17T09:39:14.707Z,64.45
2022-11-17T09:41:49.002Z,64.35
2022-11-17T09:44:30.172Z,64.60
2022-11-17T09:47:09.527Z,65.37
2022-11-17T09:49:58.073Z,65.34
2022-11-17T09:52:34.832Z,64.86
2022-11-17T09:55:17.823Z,64.57
2022-11-17T09:57:54.006Z,64.77
2022-11-17T10:00:26.985Z,64.91
2022-11-17T10:02:58.555Z,64.50
2022-11-17T10:05:33.138Z,64.75
2022-11-17T10:08:08.593Z,64.26
2022-11-17T10:10:45.602Z,64.84
2022-11-17T10:13:25.428Z,65.06
2022-11-17T10:15:59.975Z,65.13
2022-11-17T10:18:37.906Z,65.01
2022-11-17T10:21:10.393Z,64.95
2022-11-17T10:23:47.340Z,64.87
2022-11-17T10:26:19.678Z,64.75
2022-11-17T10:29:08.813Z,64.90
2022-11-17T10:31:47.994Z,65.13
2022-11-17T10:34:40.636Z,64.87
2022-11-17T10:37:31.846Z,65.15
2022-11-17T10:40:25.414Z,64.78
2022-11-17T10:43:25.793Z,64.34
2022-11-17T10:46:00.097Z,64.18
2022-11-17T10:48:33.986Z,64.26
2022-11-17T10:51:09.521Z,64.07
2022-11-17T10:53:46.050Z,64.00
2022-11-17T10:56:21.975Z,63.98
2022-11-17T10:59:03.754Z,64.22
2022-11-17T11:01:38.072Z,63.92
2022-11-17T11:04:28.918Z,63.84
2022-11-17T11:07:13.540Z,63.83
2022-11-17T11:09:52.205Z,63.31
2022-11-17T11:12:34.581Z,63.46
2022-11-17T11:15:09.433Z,63.43
2022-11-17T11:17:44.956Z,63.61
2022-11-17T11:20:19.915Z,63.54
2022-11-17T11:22:58.953Z,63.63
2022-11-17T11:25:42.910Z,63.69
2022-11-17T11:28:33.141Z,63.77
2022-11-17T11:31:15.013Z,63.73
2022-11-17T11:33:55.225Z,63.73
2022-11-17T11:36:37.923Z,63.62
2022-11-17T11:39:21.644Z,63.48
2022-11-17T11:42:15.617Z,63.65
2022-11-17T11:45:03.989Z,63.95
2022-11-17T11:47:54.255Z,63.65
2022-11-17T11:50:29.954Z,63.81
2022-11-17T11:53:09.020Z,63.52
2022-11-17T11:55:42.210Z,63.28
2022-11-17T11:58:21.702Z,62.90
2022-11-17T12:00:57.335Z,63.22
2022-11-17T12:03:42.208Z,63.24
2022-11-17T12:06:38.225Z,63.36
2022-11-17T12:09:26.458Z,63.31
2022-11-17T12:12:04.908Z,63.53
2022-11-17T12:14:37.878Z,63.38
2022-11-17T12:17:23.732Z,63.51
2022-11-17T12:19:59.912Z,63.69
2022-11-17T12:23:00.447Z,64.07
2022-11-17T12:25:36.241Z,63.59
2022-11-17T12:28:33.010Z,63.39
2022-11-17T12:31:10.133Z,63.55
2022-11-17T12:34:21.707Z,63.85
2022-11-17T12:37:18.594Z,63.53
2022-11-17T12:40:08.461Z,63.67
2022-11-17T12:43:00.200Z,63.53
2022-11-17T12:45:36.285Z,63.42
2022-11-17T12:48:32.842Z,63.14
2022-11-17T12:51:10.507Z,63.42
2022-11-17T12:54:04.707Z,63.29
2022-11-17T12:56:45.522Z,63.47
2022-11-17T12:59:42.553Z,63.84
2022-11-17T13:02:31.059Z,64.14
2022-11-17T13:05:08.094Z,63.94
2022-11-17T13:07:39.719Z,64.21
2022-11-17T13:10:29.634Z,64.06
2022-11-17T13:13:20.954Z,64.01
2022-11-17T13:15:58.955Z,64.44
2022-11-17T13:18:37.678Z,64.37
2022-11-17T13:21:30.348Z,64.49
2022-11-17T13:24:02.864Z,64.50
2022-11-17T13:26:38.626Z,64.41
2022-11-17T13:29:13.749Z,64.44
2022-11-17T13:31:45.267Z,64.69
2022-11-17T13:34:21.484Z,64.71
2022-11-17T13:37:01.283Z,64.34
2022-11-17T13:39:32.664Z,64.23
2022-11-17T13:42:08.856Z,64.53
2022-11-17T13:44:40.797Z,64.89
2022-11-17T13:47:42.033Z,64.41
2022-11-17T13:50:38.733Z,64.64
2022-11-17T13:53:26.265Z,64.57
2022-11-17T13:55:58.115Z,64.97
2022-11-17T13:58:40.476Z,64.75
2022-11-17T14:01:15.914Z,64.44
2022-11-17T14:03:47.364Z,64.62
2022-11-17T14:06:20.007Z,64.40
2022-11-17T14:11:53.926Z,64.15
2022-11-17T14:14:34.430Z,64.07
2022-11-17T14:17:19.446Z,64.03
2022-11-17T14:19:51.846Z,63.67
2022-11-17T14:22:31.822Z,63.52
2022-11-17T14:25:10.041Z,63.42
2022-11-17T14:27:42.655Z,63.46
2022-11-17T14:30:16.672Z,63.87
2022-11-17T14:32:49.763Z,64.15
2022-11-17T14:35:21.388Z,63.88
2022-11-17T14:37:53.518Z,64.13
2022-11-17T14:40:25.446Z,63.94
2022-11-17T14:43:02.870Z,64.14
2022-11-17T14:45:38.876Z,64.07
2022-11-17T14:48:17.585Z,64.56
2022-11-17T14:50:56.777Z,64.38
2022-11-17T14:53:28.537Z,64.18
2022-11-17T14:56:10.623Z,64.12
2022-11-17T14:58:42.187Z,64.05
2022-11-17T15:01:17.211Z,64.06
2022-11-17T15:03:49.098Z,64.53
2022-11-17T15:06:21.629Z,64.34
2022-11-17T15:08:56.643Z,63.96
2022-11-17T15:11:27.060Z,63.99
2022-11-17T15:14:02.552Z,63.47
2022-11-17T15:16:35.039Z,63.67
2022-11-17T15:19:07.703Z,63.79
2022-11-17T15:21:39.223Z,64.12
2022-11-17T15:24:11.544Z,64.34
2022-11-17T15:26:44.095Z,64.07
2022-11-17T15:29:21.054Z,64.09
2022-11-17T15:31:54.250Z,64.38
2022-11-17T15:34:36.075Z,64.74
2022-11-17T15:37:10.899Z,64.77
2022-11-17T15:39:40.823Z,64.59
2022-11-17T15:42:12.369Z,64.50
2022-11-17T15:44:44.399Z,64.39
2022-11-17T15:47:15.832Z,64.57
2022-11-17T15:49:47.470Z,64.39
2022-11-17T15:52:30.096Z,64.47
2022-11-17T15:55:12.514Z,64.19
2022-11-17T15:57:43.905Z,64.56
2022-11-17T16:00:17.974Z,64.94
2022-11-17T16:02:58.479Z,64.58
2022-11-17T16:05:31.491Z,64.49
2022-11-17T16:08:03.124Z,64.28
2022-11-17T16:10:34.565Z,64.10
2022-11-17T16:13:06.063Z,64.04
2022-11-17T16:15:37.541Z,64.08
2022-11-17T16:18:09.144Z,64.17
2022-11-17T16:20:40.778Z,64.15
2022-11-17T16:23:12.271Z,64.27
2022-11-17T16:25:45.851Z,64.18
2022-11-17T16:28:18.452Z,63.94
2022-11-17T16:30:52.726Z,63.11
2022-11-17T16:33:24.310Z,62.44
2022-11-17T16:35:55.817Z,62.01
2022-11-17T16:38:27.593Z,62.33
2022-11-17T16:41:02.928Z,63.16
2022-11-17T16:43:36.315Z,63.91
2022-11-17T16:46:20.969Z,63.48
2022-11-17T16:48:53.345Z,62.78
2022-11-17T16:51:52.048Z,62.43
2022-11-17T16:54:39.360Z,62.64
2022-11-17T16:57:29.093Z,62.33
2022-11-17T17:03:40.203Z,61.63
2022-11-17T17:06:38.141Z,61.67
2022-11-17T17:09:45.895Z,61.09
2022-11-17T17:12:34.313Z,59.77
2022-11-17T17:15:18.389Z,60.29
2022-11-17T17:21:22.807Z,60.05
2022-11-17T17:24:06.695Z,60.25
2022-11-17T17:27:09.139Z,60.44
2022-11-17T17:29:50.168Z,60.32
2022-11-17T17:32:53.849Z,60.74
2022-11-17T17:35:57.040Z,60.72
2022-11-17T17:38:38.314Z,60.69
2022-11-17T17:41:22.500Z,60.44
2022-11-17T17:44:00.531Z,60.85
2022-11-17T17:46:52.516Z,60.70
2022-11-17T17:49:31.642Z,61.18
2022-11-17T17:55:00.247Z,61.95
2022-11-17T17:57:45.425Z,61.86
2022-11-17T18:00:33.317Z,61.30
2022-11-17T18:03:25.971Z,61.55
2022-11-17T18:06:26.485Z,61.30
2022-11-17T18:09:20.972Z,61.54
2022-11-17T18:12:03.736Z,61.15
2022-11-17T18:15:02.975Z,61.49
2022-11-17T18:17:57.732Z,61.47
2022-11-17T18:20:43.514Z,61.59
2022-11-17T18:23:48.496Z,61.72
2022-11-17T18:26:22.106Z,61.88
2022-11-17T18:28:56.622Z,62.43
2022-11-17T18:31:30.027Z,62.25
2022-11-17T18:34:03.482Z,62.78
2022-11-17T18:36:53.487Z,62.68
2022-11-17T18:39:25.787Z,63.13
2022-11-17T18:41:58.577Z,63.00
2022-11-17T18:44:58.060Z,63.05
2022-11-17T18:47:31.757Z,63.45
2022-11-17T18:50:25.248Z,63.01
2022-11-17T18:53:27.627Z,62.77
2022-11-17T18:56:38.340Z,62.43
2022-11-17T18:59:29.839Z,62.35
2022-11-17T19:02:20.477Z,62.56
2022-11-17T19:04:55.348Z,62.73
2022-11-17T19:07:46.741Z,63.02
2022-11-17T19:10:26.266Z,62.72
2022-11-17T19:13:39.171Z,62.84
2022-11-17T19:16:17.220Z,62.83
2022-11-17T19:18:54.347Z,62.82
2022-11-17T19:21:37.301Z,63.11
2022-11-17T19:24:19.109Z,63.05
2022-11-17T19:26:52.909Z,63.78
2022-11-17T19:29:25.131Z,63.20
2022-11-17T19:32:01.875Z,63.27
2022-11-17T19:34:38.421Z,63.04
2022-11-17T19:37:18.122Z,62.87
2022-11-17T19:39:50.546Z,63.10
2022-11-17T19:42:33.070Z,63.49
2022-11-17T19:45:15.143Z,63.77
2022-11-17T19:48:10.907Z,63.49
2022-11-17T19:51:19.489Z,63.56
2022-11-17T19:53:57.623Z,63.73
2022-11-17T19:56:30.434Z,63.60
2022-11-17T19:59:03.947Z,63.52
2022-11-17T20:02:05.069Z,62.84
2022-11-17T20:04:39.613Z,62.37
2022-11-17T20:07:18.096Z,62.71
2022-11-17T20:09:52.572Z,62.49
2022-11-17T20:12:29.035Z,62.53
2022-11-17T20:15:36.196Z,62.28
2022-11-17T20:18:12.435Z,62.28
2022-11-17T20:20:45.025Z,62.74
2022-11-17T20:23:23.905Z,63.15
2022-11-17T20:26:03.856Z,63.34
2022-11-17T20:28:44.452Z,63.49
2022-11-17T20:31:49.994Z,63.15
2022-11-17T20:34:28.655Z,63.05
2022-11-17T20:37:10.393Z,63.07
2022-11-17T20:40:03.479Z,62.93
2022-11-17T20:42:46.779Z,63.08
2022-11-17T20:45:26.042Z,62.57
2022-11-17T20:47:59.348Z,62.23
2022-11-17T20:50:59.187Z,61.92
2022-11-17T20:53:42.490Z,61.71
2022-11-17T20:56:23.090Z,61.51
2022-11-17T20:58:55.027Z,61.73
2022-11-17T21:01:32.040Z,62.15
2022-11-17T21:04:04.030Z,62.37
2022-11-17T21:06:37.985Z,62.31
2022-11-17T21:09:10.026Z,62.65
2022-11-17T21:11:59.673Z,62.26
2022-11-17T21:14:32.078Z,62.18
2022-11-17T21:17:04.225Z,61.29
2022-11-17T21:19:39.025Z,61.73
2022-11-17T21:22:09.465Z,61.39
2022-11-17T21:24:41.652Z,61.82
2022-11-17T21:27:16.005Z,61.99
2022-11-17T21:29:48.292Z,61.58
2022-11-17T21:32:20.501Z,61.36
2022-11-17T21:34:53.414Z,61.12
2022-11-17T21:37:28.213Z,61.62
2022-11-17T21:40:07.275Z,62.37
2022-11-17T21:42:44.684Z,62.33
2022-11-17T21:45:16.797Z,62.49
2022-11-17T21:47:48.897Z,62.38
2022-11-17T21:50:20.953Z,61.98
2022-11-17T21:52:53.411Z,61.77
2022-11-17T21:55:29.164Z,61.34
2022-11-17T21:58:03.139Z,61.28
2022-11-17T22:00:34.757Z,61.24
2022-11-17T22:03:06.526Z,61.31
2022-11-17T22:05:38.167Z,61.37
2022-11-17T22:08:11.649Z,61.54
2022-11-17T22:10:43.676Z,61.46
2022-11-17T22:13:18.098Z,61.77
2022-11-17T22:16:07.679Z,61.77
2022-11-17T22:18:51.231Z,61.44
2022-11-17T22:21:47.049Z,61.33
2022-11-17T22:24:49.914Z,61.13
2022-11-17T22:27:23.990Z,61.02
2022-11-17T22:30:33.076Z,61.38
2022-11-17T22:33:26.570Z,61.45
2022-11-17T22:36:29.746Z,61.74
2022-11-17T22:39:02.392Z,61.91
2022-11-17T22:41:49.346Z,61.73
2022-11-17T22:44:41.851Z,61.93
2022-11-17T22:47:13.622Z,62.20
2022-11-17T22:49:46.220Z,61.67
2022-11-17T22:52:19.401Z,61.43
2022-11-17T22:54:51.402Z,61.84
2022-11-17T22:57:22.937Z,61.50
2022-11-17T22:59:54.476Z,61.51
2022-11-17T23:02:27.477Z,62.15
2022-11-17T23:04:59.363Z,62.02
2022-11-17T23:07:31.288Z,62.78
2022-11-17T23:10:04.298Z,63.38
2022-11-17T23:12:37.360Z,63.20
2022-11-17T23:15:10.586Z,62.70
2022-11-17T23:17:43.055Z,62.51
2022-11-17T23:20:16.172Z,61.53
2022-11-17T23:22:47.870Z,61.13
2022-11-17T23:25:20.267Z,61.08
2022-11-17T23:27:52.160Z,61.55
2022-11-17T23:30:23.665Z,61.23
2022-11-17T23:32:58.428Z,61.57
2022-11-17T23:35:28.595Z,61.82
2022-11-17T23:38:01.297Z,62.25
2022-11-17T23:40:33.359Z,61.96
2022-11-17T23:43:08.214Z,62.10
2022-11-17T23:45:38.060Z,62.12
2022-11-17T23:48:11.474Z,62.45
2022-11-17T23:50:43.151Z,62.66
2022-11-17T23:53:15.442Z,62.58
2022-11-17T23:55:56.234Z,62.70
2022-11-17T23:58:29.191Z,62.35
